createdAt,value
2022-09-02T00:02:29.614Z,78.33
2022-09-02T00:04:57.885Z,78.43
2022-09-02T00:07:26.058Z,78.41
2022-09-02T00:09:55.154Z,78.34
2022-09-02T00:12:23.425Z,78.31
2022-09-02T00:14:51.805Z,78.53
2022-09-02T00:17:20.389Z,78.47
2022-09-02T00:19:50.156Z,78.31
2022-09-02T00:22:21.648Z,78.55
2022-09-02T00:24:50.031Z,78.51
2022-09-02T00:27:18.100Z,78.58
2022-09-02T00:29:46.475Z,78.69
2022-09-02T00:32:14.754Z,78.60
2022-09-02T00:34:42.838Z,78.45
2022-09-02T00:37:11.512Z,78.32
2022-09-02T00:39:40.917Z,78.20
2022-09-02T00:42:08.920Z,78.02
2022-09-02T00:44:37.039Z,77.84
2022-09-02T00:47:04.986Z,77.81
2022-09-02T00:49:38.517Z,77.84
2022-09-02T00:52:27.401Z,77.93
2022-09-02T00:55:03.437Z,77.98
2022-09-02T00:57:42.448Z,78.21
2022-09-02T01:00:20.597Z,78.41
2022-09-02T01:02:53.082Z,78.55
2022-09-02T01:05:23.677Z,78.62
2022-09-02T01:07:54.370Z,78.71
2022-09-02T01:10:26.080Z,78.82
2022-09-02T01:12:59.387Z,78.98
2022-09-02T01:15:27.785Z,79.27
2022-09-02T01:17:56.078Z,79.40
2022-09-02T01:20:27.327Z,79.58
2022-09-02T01:22:58.448Z,79.69
2022-09-02T01:25:31.560Z,79.73
2022-09-02T01:28:06.530Z,79.91
2022-09-02T01:30:36.461Z,80.03
2022-09-02T01:33:04.519Z,80.18
2022-09-02T01:35:32.760Z,80.19
2022-09-02T01:38:03.723Z,80.34
2022-09-02T01:40:41.454Z,80.91
2022-09-02T01:43:19.166Z,80.86
2022-09-02T01:45:49.956Z,80.82
2022-09-02T01:48:21.803Z,80.67
2022-09-02T01:51:02.379Z,80.66
2022-09-02T01:53:31.266Z,80.79
2022-09-02T01:56:00.304Z,81.02
2022-09-02T01:58:28.358Z,81.12
2022-09-02T02:00:57.002Z,81.20
2022-09-02T02:03:25.583Z,81.32
2022-09-02T02:05:53.770Z,81.41
2022-09-02T02:08:23.245Z,81.56
2022-09-02T02:10:51.505Z,81.61
2022-09-02T02:13:19.762Z,81.54
2022-09-02T02:15:47.791Z,81.70
2022-09-02T02:18:15.921Z,81.75
2022-09-02T02:20:45.082Z,81.82
2022-09-02T02:23:14.282Z,81.78
2022-09-02T02:25:42.502Z,81.78
2022-09-02T02:28:10.750Z,81.77
2022-09-02T02:30:38.741Z,81.87
2022-09-02T02:33:06.745Z,81.88
2022-09-02T02:35:35.097Z,82.01
2022-09-02T02:38:04.075Z,82.08
2022-09-02T02:40:33.344Z,82.05
2022-09-02T02:43:01.432Z,82.06
2022-09-02T02:45:29.609Z,82.17
2022-09-02T02:48:00.556Z,82.43
2022-09-02T02:50:28.678Z,82.36
2022-09-02T02:52:57.886Z,82.41
2022-09-02T02:55:26.290Z,82.41
2022-09-02T02:57:54.565Z,82.41
2022-09-02T03:00:28.251Z,82.44
2022-09-02T03:02:59.799Z,82.46
2022-09-02T03:05:28.653Z,82.69
2022-09-02T03:07:56.903Z,82.77
2022-09-02T03:10:26.201Z,82.83
2022-09-02T03:12:54.670Z,82.84
2022-09-02T03:15:23.206Z,82.95
2022-09-02T03:17:51.197Z,83.10
2022-09-02T03:20:19.845Z,83.04
2022-09-02T03:22:51.038Z,83.19
2022-09-02T03:25:21.104Z,83.22
2022-09-02T03:27:50.520Z,83.52
2022-09-02T03:30:22.945Z,83.53
2022-09-02T03:33:00.495Z,83.47
2022-09-02T03:35:33.024Z,83.49
2022-09-02T03:38:01.911Z,83.44
2022-09-02T03:40:30.533Z,83.41
2022-09-02T03:43:00.333Z,83.54
2022-09-02T03:45:31.176Z,83.85
2022-09-02T03:47:59.551Z,83.79
2022-09-02T03:50:42.479Z,83.84
2022-09-02T03:53:18.109Z,83.90
2022-09-02T03:55:49.409Z,84.00
2022-09-02T03:58:19.540Z,84.04
2022-09-02T04:00:53.996Z,84.03
2022-09-02T04:03:22.690Z,84.11
2022-09-02T04:05:52.648Z,84.10
2022-09-02T04:08:21.025Z,84.11
2022-09-02T04:10:49.625Z,84.17
2022-09-02T04:13:18.203Z,84.23
2022-09-02T04:15:48.388Z,84.33
2022-09-02T04:18:17.679Z,84.33
2022-09-02T04:20:46.305Z,84.42
2022-09-02T04:23:14.449Z,84.45
2022-09-02T04:25:44.198Z,84.45
2022-09-02T04:28:13.443Z,84.54
2022-09-02T04:30:42.875Z,84.56
2022-09-02T04:33:11.409Z,84.61
2022-09-02T04:35:45.430Z,84.54
2022-09-02T04:38:14.380Z,84.53
2022-09-02T04:40:46.101Z,84.54
2022-09-02T04:43:14.950Z,84.46
2022-09-02T04:45:45.904Z,84.40
2022-09-02T04:48:14.055Z,84.28
2022-09-02T04:50:43.650Z,84.15
2022-09-02T04:53:12.580Z,84.04
2022-09-02T04:55:42.079Z,83.83
2022-09-02T04:58:11.275Z,83.62
2022-09-02T05:00:40.233Z,83.45
2022-09-02T05:03:08.219Z,83.30
2022-09-02T05:05:37.871Z,83.14
2022-09-02T05:08:06.194Z,83.03
2022-09-02T05:10:35.508Z,83.29
2022-09-02T05:13:04.025Z,82.61
2022-09-02T05:15:32.465Z,80.00
2022-09-02T05:18:00.614Z,76.24
2022-09-02T05:20:32.478Z,72.47
2022-09-02T05:23:00.634Z,68.92
2022-09-02T05:25:28.980Z,65.72
2022-09-02T05:27:57.124Z,62.58
2022-09-02T05:30:25.086Z,60.33
2022-09-02T05:32:53.075Z,57.63
2022-09-02T05:35:22.210Z,55.89
2022-09-02T05:37:50.488Z,53.64
2022-09-02T05:40:22.565Z,52.41
2022-09-02T05:42:51.014Z,50.82
2022-09-02T05:45:19.208Z,48.81
2022-09-02T05:47:47.338Z,48.05
2022-09-02T05:50:17.007Z,47.20
2022-09-02T05:52:45.310Z,46.60
2022-09-02T05:55:13.730Z,45.41
2022-09-02T05:57:43.481Z,45.10
2022-09-02T06:00:18.019Z,44.70
2022-09-02T06:02:46.741Z,43.74
2022-09-02T06:05:14.995Z,43.34
2022-09-02T06:07:43.133Z,42.88
2022-09-02T06:10:11.094Z,41.90
2022-09-02T06:12:42.553Z,41.39
2022-09-02T06:15:12.626Z,41.14
2022-09-02T06:17:41.144Z,41.30
2022-09-02T06:20:10.024Z,41.28
2022-09-02T06:22:40.088Z,40.91
2022-09-02T06:25:08.185Z,41.05
2022-09-02T06:27:38.625Z,41.48
2022-09-02T06:30:07.326Z,42.99
2022-09-02T06:32:35.445Z,44.80
2022-09-02T06:35:03.817Z,45.83
2022-09-02T06:37:31.850Z,46.93
2022-09-02T06:40:00.142Z,48.47
2022-09-02T06:42:28.602Z,49.45
2022-09-02T06:44:56.698Z,50.23
2022-09-02T06:47:24.726Z,51.09
2022-09-02T06:49:53.490Z,51.82
2022-09-02T06:52:21.474Z,52.29
2022-09-02T06:54:52.054Z,52.43
2022-09-02T06:57:20.248Z,52.66
2022-09-02T06:59:50.376Z,52.89
2022-09-02T07:02:18.524Z,53.13
2022-09-02T07:05:05.797Z,53.08
2022-09-02T07:07:36.250Z,52.89
2022-09-02T07:10:11.101Z,52.65
2022-09-02T07:12:40.751Z,52.63
2022-09-02T07:15:12.832Z,52.71
2022-09-02T07:17:40.858Z,52.46
2022-09-02T07:20:09.440Z,52.25
2022-09-02T07:22:39.251Z,51.92
2022-09-02T07:25:08.852Z,51.73
2022-09-02T07:27:37.632Z,51.60
2022-09-02T07:30:06.972Z,50.90
2022-09-02T07:32:35.165Z,49.02
2022-09-02T07:35:06.381Z,48.86
2022-09-02T07:37:37.366Z,49.43
2022-09-02T07:40:08.500Z,48.54
2022-09-02T07:42:36.851Z,48.39
2022-09-02T07:45:07.530Z,48.44
2022-09-02T07:47:35.914Z,46.42
2022-09-02T07:50:22.175Z,46.17
2022-09-02T07:52:50.892Z,45.83
2022-09-02T07:55:19.216Z,45.18
2022-09-02T07:57:48.088Z,44.56
2022-09-02T08:00:19.859Z,43.65
2022-09-02T08:02:48.207Z,43.26
2022-09-02T08:05:16.868Z,41.23
2022-09-02T08:07:45.349Z,40.02
2022-09-02T08:10:14.057Z,37.65
2022-09-02T08:12:44.928Z,38.14
2022-09-02T08:15:14.594Z,36.74
2022-09-02T08:17:44.656Z,37.45
2022-09-02T08:20:14.902Z,37.08
2022-09-02T08:22:45.198Z,36.74
2022-09-02T08:25:18.764Z,35.95
2022-09-02T08:27:47.190Z,36.04
2022-09-02T08:30:15.958Z,36.14
2022-09-02T08:32:44.390Z,35.16
2022-09-02T08:35:12.676Z,35.07
2022-09-02T08:37:40.942Z,33.56
2022-09-02T08:40:16.136Z,32.33
2022-09-02T08:42:51.973Z,32.45
2022-09-02T08:45:40.695Z,32.02
2022-09-02T08:48:41.595Z,32.00
2022-09-02T08:51:27.128Z,31.62
2022-09-02T08:54:25.835Z,30.57
2022-09-02T08:56:54.147Z,29.63
2022-09-02T08:59:27.507Z,28.90
2022-09-02T09:02:17.921Z,28.68
2022-09-02T09:05:14.872Z,28.26
2022-09-02T09:07:55.959Z,27.61
2022-09-02T09:10:40.291Z,27.32
2022-09-02T09:13:25.615Z,27.99
2022-09-02T09:16:38.830Z,27.20
2022-09-02T09:19:31.585Z,25.60
2022-09-02T09:22:03.632Z,26.53
2022-09-02T09:24:35.194Z,25.34
2022-09-02T09:27:09.936Z,24.94
2022-09-02T09:29:38.159Z,25.81
2022-09-02T09:32:24.377Z,25.27
2022-09-02T09:34:52.610Z,25.51
2022-09-02T09:37:59.676Z,25.43
2022-09-02T09:40:33.436Z,25.91
2022-09-02T09:43:15.407Z,25.64
2022-09-02T09:46:21.091Z,25.68
2022-09-02T09:48:51.835Z,25.71
2022-09-02T09:51:20.622Z,25.37
2022-09-02T09:53:48.692Z,24.86
2022-09-02T09:56:17.334Z,24.91
2022-09-02T09:58:47.745Z,24.66
2022-09-02T10:01:31.305Z,24.58
2022-09-02T10:04:12.174Z,23.45
2022-09-02T10:06:49.474Z,23.34
2022-09-02T10:09:20.384Z,22.95
2022-09-02T10:12:05.419Z,22.90
2022-09-02T10:14:38.654Z,22.62
2022-09-02T10:17:33.703Z,21.68
2022-09-02T10:20:23.389Z,21.86
2022-09-02T10:22:59.334Z,21.62
2022-09-02T10:25:47.892Z,20.63
2022-09-02T10:28:37.628Z,20.40
2022-09-02T10:31:24.454Z,20.87
2022-09-02T10:34:03.248Z,20.78
2022-09-02T10:37:09.724Z,20.42
2022-09-02T10:40:02.430Z,19.82
2022-09-02T10:42:43.515Z,20.51
2022-09-02T10:45:18.895Z,20.23
2022-09-02T10:48:10.114Z,20.92
2022-09-02T10:50:41.223Z,20.86
2022-09-02T10:53:09.851Z,20.17
2022-09-02T10:55:54.956Z,19.63
2022-09-02T10:58:29.913Z,20.55
2022-09-02T11:00:58.072Z,20.69
2022-09-02T11:03:33.969Z,20.82
2022-09-02T11:06:15.145Z,21.51
2022-09-02T11:08:52.055Z,22.55
2022-09-02T11:11:51.251Z,22.44
2022-09-02T11:14:35.348Z,21.84
2022-09-02T11:17:12.924Z,21.32
2022-09-02T11:20:01.799Z,21.25
2022-09-02T11:23:14.234Z,20.61
2022-09-02T11:26:13.950Z,19.74
2022-09-02T11:28:54.624Z,19.39
2022-09-02T11:31:32.173Z,19.38
2022-09-02T11:34:37.124Z,20.38
2022-09-02T11:37:08.468Z,20.93
2022-09-02T11:40:02.338Z,20.14
2022-09-02T11:42:47.254Z,19.12
2022-09-02T11:45:36.962Z,19.19
2022-09-02T11:48:33.924Z,19.20
2022-09-02T11:51:39.864Z,19.53
2022-09-02T11:54:12.261Z,19.31
2022-09-02T11:56:47.574Z,18.71
2022-09-02T11:59:50.002Z,18.42
2022-09-02T12:02:59.099Z,19.03
2022-09-02T12:05:31.669Z,18.10
2022-09-02T12:08:36.011Z,17.81
2022-09-02T12:11:07.056Z,17.91
2022-09-02T12:13:42.110Z,17.75
2022-09-02T12:16:13.365Z,18.19
2022-09-02T12:18:58.546Z,19.07
2022-09-02T12:21:28.704Z,19.63
2022-09-02T12:23:57.115Z,19.75
2022-09-02T12:26:51.153Z,19.48
2022-09-02T12:29:19.612Z,19.93
2022-09-02T12:31:53.526Z,20.20
2022-09-02T12:34:21.638Z,20.10
2022-09-02T12:36:53.689Z,19.65
2022-09-02T12:39:24.943Z,18.89
2022-09-02T12:42:11.603Z,18.65
2022-09-02T12:45:16.777Z,18.20
2022-09-02T12:48:28.626Z,18.32
2022-09-02T12:51:06.395Z,19.31
2022-09-02T12:53:50.069Z,20.87
2022-09-02T12:56:24.003Z,21.23
2022-09-02T12:59:02.329Z,21.41
2022-09-02T13:02:04.747Z,21.62
2022-09-02T13:04:32.690Z,20.85
2022-09-02T13:07:23.968Z,20.32
2022-09-02T13:10:15.838Z,18.83
2022-09-02T13:12:57.540Z,18.58
2022-09-02T13:15:44.277Z,18.35
2022-09-02T13:18:31.025Z,17.79
2022-09-02T13:21:05.988Z,17.35
2022-09-02T13:23:42.846Z,17.43
2022-09-02T13:26:50.168Z,17.80
2022-09-02T13:29:33.788Z,17.84
2022-09-02T13:32:17.004Z,17.73
2022-09-02T13:34:47.853Z,17.47
2022-09-02T13:37:45.461Z,17.43
2022-09-02T13:40:25.527Z,17.27
2022-09-02T13:43:06.020Z,17.96
2022-09-02T13:45:35.785Z,19.77
2022-09-02T13:48:19.726Z,21.04
2022-09-02T13:50:51.015Z,21.89
2022-09-02T13:53:54.099Z,22.79
2022-09-02T13:56:31.155Z,24.96
2022-09-02T13:58:59.344Z,26.28
2022-09-02T14:01:32.820Z,26.13
2022-09-02T14:04:10.483Z,25.19
2022-09-02T14:06:43.331Z,25.10
2022-09-02T14:09:24.613Z,24.16
2022-09-02T14:11:54.339Z,21.92
2022-09-02T14:14:25.634Z,20.06
2022-09-02T14:17:21.606Z,19.59
2022-09-02T14:19:51.249Z,20.50
2022-09-02T14:22:29.852Z,21.18
2022-09-02T14:24:58.135Z,22.68
2022-09-02T14:27:26.289Z,24.36
2022-09-02T14:29:58.787Z,25.13
2022-09-02T14:32:29.364Z,25.19
2022-09-02T14:35:20.801Z,24.06
2022-09-02T14:37:59.956Z,21.83
2022-09-02T14:40:39.797Z,20.22
2022-09-02T14:43:23.785Z,18.72
2022-09-02T14:45:52.158Z,18.07
2022-09-02T14:48:24.074Z,18.00
2022-09-02T14:51:04.226Z,17.24
2022-09-02T14:53:34.245Z,15.90
2022-09-02T14:56:02.584Z,14.62
2022-09-02T14:58:30.679Z,14.72
2022-09-02T15:01:01.463Z,14.52
2022-09-02T15:03:31.757Z,14.35
2022-09-02T15:05:59.960Z,14.25
2022-09-02T15:08:28.215Z,14.23
2022-09-02T15:11:01.338Z,14.21
2022-09-02T15:13:34.349Z,14.12
2022-09-02T15:16:03.527Z,14.41
2022-09-02T15:18:31.706Z,14.61
2022-09-02T15:20:59.752Z,14.56
2022-09-02T15:23:31.599Z,14.45
2022-09-02T15:26:03.470Z,14.55
2022-09-02T15:28:31.593Z,14.40
2022-09-02T15:31:03.189Z,14.62
2022-09-02T15:33:33.660Z,14.50
2022-09-02T15:36:12.096Z,14.40
2022-09-02T15:38:41.365Z,14.60
2022-09-02T15:41:20.835Z,14.74
2022-09-02T15:43:49.164Z,15.30
2022-09-02T15:46:27.560Z,15.68
2022-09-02T15:49:02.649Z,15.86
2022-09-02T15:51:32.141Z,16.32
2022-09-02T15:54:03.998Z,16.57
2022-09-02T15:56:34.695Z,17.07
2022-09-02T15:59:11.029Z,17.48
2022-09-02T16:01:42.933Z,17.90
2022-09-02T16:04:13.252Z,18.93
2022-09-02T16:06:45.427Z,20.16
2022-09-02T16:09:15.385Z,20.54
2022-09-02T16:11:53.315Z,21.18
2022-09-02T16:14:24.436Z,21.71
2022-09-02T16:16:55.939Z,21.35
2022-09-02T16:19:27.822Z,21.25
2022-09-02T16:21:58.768Z,21.64
2022-09-02T16:24:27.115Z,21.75
2022-09-02T16:26:55.209Z,21.38
2022-09-02T16:29:28.276Z,21.61
2022-09-02T16:32:14.546Z,22.97
2022-09-02T16:34:47.076Z,25.28
2022-09-02T16:37:15.146Z,27.22
2022-09-02T16:39:43.222Z,29.49
2022-09-02T16:42:11.246Z,31.83
2022-09-02T16:44:41.622Z,32.89
2022-09-02T16:47:12.895Z,34.59
2022-09-02T16:49:42.321Z,36.16
2022-09-02T16:52:10.813Z,37.27
2022-09-02T16:54:41.001Z,37.72
2022-09-02T16:57:09.974Z,38.20
2022-09-02T16:59:38.001Z,38.83
2022-09-02T17:02:06.109Z,39.33
2022-09-02T17:04:34.256Z,40.91
2022-09-02T17:07:02.240Z,43.48
2022-09-02T17:09:31.548Z,44.36
2022-09-02T17:11:59.674Z,44.72
2022-09-02T17:14:27.682Z,45.22
2022-09-02T17:16:55.792Z,46.45
2022-09-02T17:19:26.241Z,47.24
2022-09-02T17:21:58.463Z,47.93
2022-09-02T17:24:31.888Z,48.43
2022-09-02T17:27:01.488Z,48.27
2022-09-02T17:32:20.680Z,49.05
2022-09-02T17:34:51.213Z,49.78
2022-09-02T17:37:22.581Z,50.72
2022-09-02T17:39:50.645Z,50.87
2022-09-02T17:42:21.723Z,51.21
2022-09-02T17:44:50.141Z,51.16
2022-09-02T17:47:22.981Z,50.84
2022-09-02T17:49:51.985Z,50.99
2022-09-02T17:52:23.344Z,51.74
2022-09-02T17:54:53.354Z,51.98
2022-09-02T17:57:42.448Z,52.68
2022-09-02T18:00:15.595Z,52.66
2022-09-02T18:02:55.566Z,52.92
2022-09-02T18:06:02.428Z,53.61
2022-09-02T18:08:49.757Z,53.92
2022-09-02T18:11:20.477Z,54.45
2022-09-02T18:14:16.762Z,54.90
2022-09-02T18:17:13.491Z,55.63
2022-09-02T18:20:06.485Z,55.99
2022-09-02T18:22:53.307Z,56.06
2022-09-02T18:25:46.640Z,56.41
2022-09-02T18:28:40.781Z,56.93
2022-09-02T18:31:14.795Z,56.91
2022-09-02T18:33:55.639Z,57.39
2022-09-02T18:36:29.479Z,57.65
2022-09-02T18:39:51.909Z,58.04
2022-09-02T18:42:48.126Z,58.38
2022-09-02T18:45:21.911Z,58.44
2022-09-02T18:48:05.696Z,58.82
2022-09-02T18:50:55.052Z,59.08
2022-09-02T18:53:28.787Z,59.56
2022-09-02T18:56:02.576Z,59.74
2022-09-02T18:58:40.035Z,59.91
2022-09-02T19:01:23.304Z,60.41
2022-09-02T19:03:51.996Z,60.53
2022-09-02T19:06:23.771Z,60.49
2022-09-02T19:08:59.658Z,61.11
2022-09-02T19:11:28.231Z,61.72
2022-09-02T19:14:09.347Z,61.89
2022-09-02T19:16:39.229Z,62.14
2022-09-02T19:19:08.558Z,62.60
2022-09-02T19:21:41.382Z,62.65
2022-09-02T19:24:25.718Z,63.01
2022-09-02T19:27:00.089Z,63.48
2022-09-02T19:29:28.268Z,63.35
2022-09-02T19:31:56.552Z,63.68
2022-09-02T19:34:32.532Z,63.95
2022-09-02T19:37:02.235Z,64.39
2022-09-02T19:39:41.206Z,64.84
2022-09-02T19:42:09.361Z,65.06
2022-09-02T19:44:39.439Z,65.13
2022-09-02T19:48:02.862Z,65.20
2022-09-02T19:49:58.373Z,65.87
2022-09-02T19:52:27.920Z,65.78
2022-09-02T19:54:57.110Z,65.88
2022-09-02T19:57:25.255Z,65.89
2022-09-02T19:59:53.406Z,65.86
2022-09-02T20:02:21.671Z,65.96
2022-09-02T20:04:49.869Z,65.85
2022-09-02T20:07:18.115Z,65.33
2022-09-02T20:09:46.836Z,65.53
2022-09-02T20:12:16.158Z,65.50
2022-09-02T20:14:46.082Z,65.44
2022-09-02T20:17:18.843Z,65.47
2022-09-02T20:19:47.970Z,65.77
2022-09-02T20:22:18.295Z,66.01
2022-09-02T20:24:46.490Z,65.96
2022-09-02T20:27:35.941Z,65.85
2022-09-02T20:30:09.278Z,65.90
2022-09-02T20:32:58.055Z,65.58
2022-09-02T20:35:28.820Z,66.03
2022-09-02T20:38:48.867Z,66.20
2022-09-02T20:41:40.930Z,66.04
2022-09-02T20:44:28.351Z,66.31
2022-09-02T20:47:08.006Z,66.01
2022-09-02T20:50:14.306Z,65.96
2022-09-02T20:53:05.716Z,65.88
2022-09-02T20:55:45.071Z,65.99
2022-09-02T20:58:44.659Z,66.07
2022-09-02T21:01:28.072Z,66.44
2022-09-02T21:04:24.604Z,66.58
2022-09-02T21:07:01.735Z,66.69
2022-09-02T21:09:56.189Z,66.82
2022-09-02T21:12:56.515Z,66.77
2022-09-02T21:15:48.056Z,66.66
2022-09-02T21:18:47.274Z,66.76
2022-09-02T21:21:36.618Z,67.16
2022-09-02T21:24:32.475Z,66.87
2022-09-02T21:27:20.990Z,67.19
2022-09-02T21:30:02.904Z,67.32
2022-09-02T21:32:39.170Z,67.52
2022-09-02T21:35:49.110Z,68.02
2022-09-02T21:38:24.692Z,68.11
2022-09-02T21:41:07.940Z,68.34
2022-09-02T21:43:59.828Z,68.45
2022-09-02T21:47:01.747Z,68.83
2022-09-02T21:49:49.714Z,68.96
2022-09-02T21:52:29.945Z,69.10
2022-09-02T21:55:23.676Z,69.56
2022-09-02T21:58:10.598Z,69.90
2022-09-02T22:00:48.268Z,70.38
2022-09-02T22:03:24.121Z,70.52
2022-09-02T22:06:01.919Z,70.70
2022-09-02T22:08:51.360Z,70.63
2022-09-02T22:11:36.096Z,70.76
2022-09-02T22:14:15.119Z,71.16
2022-09-02T22:16:58.175Z,71.59
2022-09-02T22:19:39.108Z,71.64
2022-09-02T22:22:22.110Z,71.66
2022-09-02T22:24:52.218Z,71.72
2022-09-02T22:27:41.171Z,71.72
2022-09-02T22:30:14.744Z,71.75
2022-09-02T22:33:08.386Z,71.75
2022-09-02T22:35:39.386Z,71.90
2022-09-02T22:38:11.146Z,71.92
2022-09-02T22:41:20.455Z,72.03
2022-09-02T22:44:01.864Z,71.89
2022-09-02T22:47:03.016Z,71.95
2022-09-02T22:49:55.314Z,72.46
2022-09-02T22:52:55.395Z,72.76
2022-09-02T22:55:47.082Z,72.72
2022-09-02T22:58:24.031Z,73.05
2022-09-02T23:01:20.155Z,72.98
2022-09-02T23:04:06.986Z,73.18
2022-09-02T23:06:35.208Z,73.37
2022-09-02T23:09:09.410Z,73.18
2022-09-02T23:11:49.858Z,73.18
2022-09-02T23:14:19.606Z,73.15
2022-09-02T23:17:07.183Z,73.14
2022-09-02T23:19:56.780Z,73.21
2022-09-02T23:22:57.469Z,73.65
2022-09-02T23:25:31.730Z,73.97
2022-09-02T23:28:28.434Z,73.94
2022-09-02T23:31:26.088Z,73.76
2022-09-02T23:34:07.391Z,73.80
2022-09-02T23:36:57.914Z,73.97
2022-09-02T23:39:33.229Z,73.45
2022-09-02T23:42:01.597Z,73.05
2022-09-02T23:44:30.257Z,72.85
2022-09-02T23:47:17.476Z,72.94
2022-09-02T23:49:54.245Z,73.08
2022-09-02T23:53:06.284Z,72.92
2022-09-02T23:55:56.855Z,72.95
2022-09-02T23:58:45.836Z,73.22
